Terminal Aerodrome Forecast
Issued by NWS

Home | Current Version | Previous Version | Text Only | Print | Product List | Glossary On
Versions: 1 2 3 4 5 6 7 8 9 10 11 12 13 14 15 16 17 18
000
FTAK31 PAJN 230300 AAA
TAFAYA
TAF AMD
PAYA 230307Z 2303/2324 VRB06KT P6SM FEW004 SCT008
      TEMPO 2303/2307 27008KT SCT004 BKN008
     FM230700 27005KT P6SM SCT004 OVC008
     FM231000 VRB03KT 5SM BR BKN002
     FM231800 VRB04KT P6SM SCT010
      AMD LTD TO CLD VIS AND WIND 2301/2310=

USA.gov is the U.S. government's official web portal to all federal, state and local government web resources and services.